Time;durP1;ratioP1;P1;durP2;ratioP2;P2;SDS_P1;SDS_P2;PMS_P1;PMS_P2;Temp;Humidity;BMP_temperature;BMP_pressure;BME280_temperature;BME280_humidity;BME280_pressure;Samples;Min_cycle;Max_cycle;Signal;HPM_P1;HPM_P2
2023/07/28 00:02:14;;;;;;;7.07;2.85;;;;;;;15.60;100.00;100143.69;5094199;28;20039;-73
2023/07/28 00:04:39;;;;;;;3.67;2.50;;;;;;;15.38;100.00;100111.91;5061863;28;20550;-73
2023/07/28 00:07:05;;;;;;;9.75;2.55;;;;;;;15.56;100.00;100148.75;5092686;28;20039;-73
2023/07/28 00:09:31;;;;;;;7.07;3.30;;;;;;;15.55;100.00;100140.88;5076386;28;20035;-73
2023/07/28 00:11:58;;;;;;;6.70;3.10;;;;;;;15.54;100.00;100147.41;5093364;28;20399;-73
2023/07/28 00:14:24;;;;;;;5.22;2.70;;;;;;;15.44;100.00;100135.31;5093409;28;20047;-74
2023/07/28 00:16:50;;;;;;;6.25;2.80;;;;;;;15.51;100.00;100141.38;5091991;28;20039;-74
2023/07/28 00:19:16;;;;;;;4.82;3.25;;;;;;;15.40;100.00;100126.03;5092224;28;20034;-74
2023/07/28 00:21:41;;;;;;;8.93;2.88;;;;;;;15.45;100.00;100147.78;5058240;28;20036;-74
2023/07/28 00:24:07;;;;;;;5.32;2.70;;;;;;;15.46;100.00;100143.19;5093254;28;20035;-73
2023/07/28 00:26:32;;;;;;;3.97;2.80;;;;;;;15.44;100.00;100139.91;5091726;28;20024;-74
2023/07/28 00:28:59;;;;;;;5.60;2.95;;;;;;;15.32;100.00;100123.72;5074875;28;20032;-73
2023/07/28 00:31:24;;;;;;;5.40;3.05;;;;;;;15.43;100.00;100136.41;5058370;28;20032;-73
2023/07/28 00:33:51;;;;;;;4.53;2.33;;;;;;;15.24;100.00;100114.13;5093535;28;20038;-73
2023/07/28 00:36:16;;;;;;;5.00;3.00;;;;;;;15.39;100.00;100142.53;5078238;28;20035;-73
2023/07/28 00:38:41;;;;;;;6.00;2.72;;;;;;;15.34;100.00;100139.75;5074664;28;20435;-73
2023/07/28 00:41:07;;;;;;;5.15;2.88;;;;;;;15.16;100.00;100119.94;5091423;28;20032;-74
2023/07/28 00:43:32;;;;;;;6.90;2.90;;;;;;;15.17;100.00;100123.50;5074582;28;20028;-73
2023/07/28 00:45:58;;;;;;;5.75;2.63;;;;;;;15.25;100.00;100131.22;5091329;28;20122;-73
2023/07/28 00:48:25;;;;;;;10.45;2.80;;;;;;;15.16;100.00;100121.84;5093125;28;20028;-73
2023/07/28 00:50:51;;;;;;;7.28;3.00;;;;;;;15.26;100.00;100132.84;5058189;28;20060;-73
2023/07/28 00:53:16;;;;;;;7.55;3.05;;;;;;;15.12;100.00;100120.69;5096876;28;20035;-73
2023/07/28 00:55:42;;;;;;;4.05;2.80;;;;;;;15.15;100.00;100136.47;5092609;28;20028;-74
2023/07/28 00:58:09;;;;;;;7.32;3.03;;;;;;;15.20;100.00;100137.38;5096904;28;20089;-73
2023/07/28 01:00:34;;;;;;;6.60;2.75;;;;;;;15.22;100.00;100139.81;5078518;28;20038;-73
2023/07/28 01:03:00;;;;;;;4.97;2.90;;;;;;;15.21;100.00;100135.47;5092462;28;20028;-74
2023/07/28 01:05:38;;;;;;;5.60;3.20;;;;;;;15.26;100.00;100136.41;5074907;28;20028;-73
2023/07/28 01:08:16;;;;;;;5.70;2.90;;;;;;;15.10;100.00;100112.81;5091801;28;20066;-73
2023/07/28 01:10:42;;;;;;;6.95;2.92;;;;;;;15.13;100.00;100120.47;5091232;28;20042;-73
2023/07/28 01:13:08;;;;;;;7.07;3.03;;;;;;;15.22;100.00;100134.41;5091375;28;20376;-74
2023/07/28 01:15:33;;;;;;;10.00;3.25;;;;;;;15.22;100.00;100134.41;5091184;28;20028;-74
2023/07/28 01:17:58;;;;;;;7.18;3.05;;;;;;;15.23;100.00;100133.34;5073974;28;20032;-73
2023/07/28 01:20:28;;;;;;;5.07;2.90;;;;;;;15.26;100.00;100133.69;5074080;28;20035;-73
2023/07/28 01:23:19;;;;;;;5.53;3.20;;;;;;;15.32;100.00;100133.75;5092300;28;20032;-73
2023/07/28 01:26:08;;;;;;;5.05;2.92;;;;;;;15.34;100.00;100129.72;5092417;28;20024;-74
2023/07/28 01:28:34;;;;;;;6.07;3.10;;;;;;;15.26;100.00;100127.41;5090421;28;20111;-73
2023/07/28 01:31:06;;;;;;;6.55;2.70;;;;;;;15.17;100.00;100109.94;5073919;28;20579;-73
2023/07/28 01:33:31;;;;;;;5.55;3.00;;;;;;;15.24;100.00;100132.28;5090844;28;20513;-73
2023/07/28 01:35:58;;;;;;;7.00;3.30;;;;;;;15.17;100.00;100126.22;5090931;28;20024;-73
2023/07/28 01:38:24;;;;;;;6.63;2.90;;;;;;;15.22;100.00;100132.50;5090698;28;20100;-73
2023/07/28 01:40:49;;;;;;;5.18;2.80;;;;;;;15.22;100.00;100132.50;5091968;28;20285;-73
2023/07/28 01:43:15;;;;;;;5.85;2.92;;;;;;;15.10;100.00;100123.66;5078605;28;20278;-73
2023/07/28 01:45:40;;;;;;;10.65;3.30;;;;;;;15.03;100.00;100123.81;5093497;28;20218;-73
2023/07/28 01:48:08;;;;;;;6.47;3.20;;;;;;;14.92;100.00;100116.56;5056787;28;20036;-74
2023/07/28 01:50:33;;;;;;;5.28;2.58;;;;;;;15.06;100.00;100137.94;5091439;28;20048;-73
2023/07/28 01:52:59;;;;;;;5.88;3.00;;;;;;;15.07;100.00;100137.69;5090418;28;20082;-73
2023/07/28 01:55:24;;;;;;;7.78;3.30;;;;;;;15.08;100.00;100136.63;5073397;28;20047;-73
2023/07/28 01:57:53;;;;;;;4.82;2.92;;;;;;;15.09;100.00;100137.44;5073648;28;20047;-74
2023/07/28 02:00:19;;;;;;;3.92;2.95;;;;;;;15.07;100.00;100134.16;5091540;28;20081;-73
2023/07/28 02:02:46;;;;;;;7.03;2.70;;;;;;;15.03;100.00;100137.38;5072718;28;20032;-73
2023/07/28 02:05:11;;;;;;;4.85;2.80;;;;;;;15.01;100.00;100133.25;5090330;28;20244;-73
2023/07/28 02:07:37;;;;;;;3.00;2.70;;;;;;;15.00;100.00;100135.16;5093487;28;20217;-73
2023/07/28 02:10:02;;;;;;;6.30;2.85;;;;;;;14.98;100.00;100134.56;5092421;28;20028;-73
2023/07/28 02:12:28;;;;;;;8.10;2.70;;;;;;;14.95;100.00;100134.22;5091265;28;20032;-73
2023/07/28 02:14:53;;;;;;;6.32;2.90;;;;;;;14.98;100.00;100136.44;5073172;28;20483;-74
2023/07/28 02:17:19;;;;;;;6.47;3.17;;;;;;;14.95;100.00;100124.22;5089811;28;20459;-73
2023/07/28 02:19:44;;;;;;;4.88;2.70;;;;;;;14.93;100.00;100141.75;5089672;28;20028;-74
2023/07/28 02:22:11;;;;;;;4.22;2.90;;;;;;;14.95;100.00;100137.75;5055973;28;20069;-74
2023/07/28 02:24:36;;;;;;;4.53;2.75;;;;;;;14.94;100.00;100141.53;5091545;28;20074;-73
2023/07/28 02:27:02;;;;;;;5.18;2.95;;;;;;;14.91;100.00;100141.22;5094939;28;20494;-73
2023/07/28 02:29:27;;;;;;;4.75;2.40;;;;;;;14.86;100.00;100141.09;5093015;28;20499;-74
2023/07/28 02:31:53;;;;;;;4.57;2.35;;;;;;;14.76;100.00;100144.44;5072720;28;20035;-74
2023/07/28 02:34:18;;;;;;;5.25;2.50;;;;;;;14.67;100.00;100135.06;5072737;28;20032;-73
2023/07/28 02:36:43;;;;;;;4.90;2.80;;;;;;;14.55;100.00;100135.94;5072761;28;20043;-73
2023/07/28 02:39:09;;;;;;;5.00;2.40;;;;;;;14.45;100.00;100138.44;5072809;28;20039;-73
2023/07/28 02:41:34;;;;;;;5.05;2.47;;;;;;;14.26;100.00;100128.84;5089395;28;20035;-73
2023/07/28 02:43:59;;;;;;;7.18;2.80;;;;;;;14.25;100.00;100136.13;5089795;28;20032;-73
2023/07/28 02:46:25;;;;;;;6.68;2.10;;;;;;;14.15;100.00;100140.53;5073113;28;20040;-73
2023/07/28 02:48:51;;;;;;;6.93;2.60;;;;;;;14.04;100.00;100140.31;5072877;28;20101;-73
2023/07/28 02:51:16;;;;;;;5.10;2.60;;;;;;;14.03;100.00;100141.34;5090042;28;20117;-73
2023/07/28 02:53:42;;;;;;;6.38;2.83;;;;;;;13.98;100.00;100146.66;5091032;28;20051;-73
2023/07/28 02:56:07;;;;;;;5.78;2.30;;;;;;;13.85;100.00;100134.22;5072878;28;20032;-73
2023/07/28 02:58:32;;;;;;;6.00;2.00;;;;;;;13.92;100.00;100146.78;5072884;28;20020;-73
2023/07/28 03:00:58;;;;;;;2.78;2.08;;;;;;;13.93;100.00;100149.25;5072825;28;20085;-73
2023/07/28 03:03:24;;;;;;;2.88;2.13;;;;;;;13.96;100.00;100146.06;5089496;28;20402;-73
2023/07/28 03:05:53;;;;;;;5.55;2.33;;;;;;;13.96;100.00;100154.19;5091109;28;20086;-73
2023/07/28 03:08:19;;;;;;;5.43;2.10;;;;;;;13.94;100.00;100150.91;5091262;28;20547;-73
2023/07/28 03:10:45;;;;;;;5.28;2.20;;;;;;;13.75;100.00;100133.19;5092354;28;20102;-73
2023/07/28 03:13:10;;;;;;;3.65;2.22;;;;;;;13.82;100.00;100140.09;5093382;28;20504;-73
2023/07/28 03:15:36;;;;;;;3.55;2.53;;;;;;;13.96;100.00;100159.59;5093000;28;20055;-74
2023/07/28 03:18:01;;;;;;;4.40;2.20;;;;;;;14.01;100.00;100161.59;5094883;28;20035;-73
2023/07/28 03:20:26;;;;;;;4.43;2.20;;;;;;;14.07;100.00;100163.34;5060357;28;20024;-74
2023/07/28 03:22:52;;;;;;;4.05;2.50;;;;;;;14.13;100.00;100162.38;5077013;28;20459;-73
2023/07/28 03:25:18;;;;;;;4.28;2.10;;;;;;;14.39;100.00;100152.91;5093180;28;20024;-73
2023/07/28 03:27:43;;;;;;;2.30;2.10;;;;;;;14.71;100.00;100157.91;5094651;28;20509;-73
2023/07/28 03:30:10;;;;;;;7.85;1.95;;;;;;;15.01;100.00;100165.78;5093310;28;20048;-74
2023/07/28 03:32:36;;;;;;;8.77;2.72;;;;;;;14.77;100.00;100159.66;5093099;28;20536;-73
2023/07/28 03:35:04;;;;;;;4.38;2.38;;;;;;;14.55;100.00;100148.66;5094563;28;20027;-73
2023/07/28 03:37:29;;;;;;;4.70;2.00;;;;;;;14.56;100.00;100159.25;5093221;28;20028;-73
2023/07/28 03:39:55;;;;;;;8.00;2.70;;;;;;;15.13;100.00;100155.69;5093287;28;20039;-74
2023/07/28 03:42:20;;;;;;;7.63;2.45;;;;;;;16.08;99.44;100163.91;5076112;28;20032;-73
2023/07/28 03:44:46;;;;;;;6.00;2.50;;;;;;;16.72;96.25;100160.59;5059405;28;20055;-73
2023/07/28 03:47:11;;;;;;;3.72;2.15;;;;;;;17.04;93.76;100144.38;5092900;28;20418;-73
2023/07/28 03:49:36;;;;;;;2.75;1.92;;;;;;;17.18;91.72;100120.31;5092853;28;20056;-74
2023/07/28 03:52:02;;;;;;;6.13;2.05;;;;;;;17.68;90.02;100155.25;5092740;28;20024;-74
2023/07/28 03:54:27;;;;;;;2.88;2.03;;;;;;;18.04;88.06;100160.91;5057226;28;20039;-74
2023/07/28 03:56:53;;;;;;;3.10;2.10;;;;;;;18.33;86.24;100160.50;5092394;28;20043;-74
2023/07/28 03:59:18;;;;;;;3.38;2.10;;;;;;;18.53;84.95;100158.66;5075767;28;20043;-74
2023/07/28 04:01:43;;;;;;;3.22;2.00;;;;;;;18.97;83.28;100162.88;5092246;28;20036;-74
2023/07/28 04:04:09;;;;;;;5.93;2.10;;;;;;;19.21;81.37;100160.47;5100640;28;20024;-73
2023/07/28 04:06:46;;;;;;;4.13;2.20;;;;;;;19.52;80.84;100161.28;5095865;28;20032;-73
2023/07/28 04:09:14;;;;;;;2.55;1.70;;;;;;;19.72;78.64;100160.47;5093837;28;20487;-74
2023/07/28 04:11:39;;;;;;;3.00;1.55;;;;;;;20.02;77.10;100162.31;5092412;28;20024;-74
2023/07/28 04:14:05;;;;;;;4.45;2.30;;;;;;;20.45;75.96;100168.16;5075356;28;20035;-74
2023/07/28 04:16:30;;;;;;;2.25;1.70;;;;;;;20.85;74.82;100171.81;5075491;28;20467;-74
2023/07/28 04:18:56;;;;;;;4.20;1.90;;;;;;;21.04;73.69;100171.97;5092361;28;20028;-74
2023/07/28 04:21:21;;;;;;;3.53;1.95;;;;;;;21.18;73.15;100164.75;5092136;28;20448;-74
2023/07/28 04:23:47;;;;;;;4.65;2.00;;;;;;;21.23;72.09;100159.25;5091832;28;20032;-74
2023/07/28 04:26:12;;;;;;;3.20;1.90;;;;;;;21.40;71.19;100156.13;5091211;28;20103;-73
2023/07/28 04:28:38;;;;;;;2.92;2.00;;;;;;;21.74;70.31;100168.94;5075060;28;20487;-74
2023/07/28 04:31:03;;;;;;;3.13;1.70;;;;;;;21.92;69.15;100168.22;5093041;28;20035;-74
2023/07/28 04:33:28;;;;;;;4.07;1.88;;;;;;;22.15;68.24;100177.59;5091853;28;20024;-74
2023/07/28 04:35:54;;;;;;;3.28;1.92;;;;;;;22.34;67.65;100172.16;5091959;28;20028;-74
2023/07/28 04:38:19;;;;;;;4.07;1.80;;;;;;;22.55;66.57;100169.13;5075133;28;20027;-74
2023/07/28 04:40:45;;;;;;;5.22;1.90;;;;;;;22.68;65.64;100162.91;5091494;28;20394;-74
2023/07/28 04:43:10;;;;;;;3.50;1.95;;;;;;;22.85;65.23;100181.63;5074633;28;20063;-74
2023/07/28 04:45:36;;;;;;;2.33;1.60;;;;;;;23.08;64.23;100175.28;5091882;28;20039;-74
2023/07/28 04:48:02;;;;;;;3.55;1.70;;;;;;;23.22;63.76;100164.38;5065579;28;20546;-74
2023/07/28 04:50:28;;;;;;;3.58;1.60;;;;;;;23.39;63.24;100172.84;5075984;28;20044;-74
2023/07/28 04:52:54;;;;;;;2.33;1.73;;;;;;;23.58;62.72;100180.25;5074662;28;20028;-73
2023/07/28 04:55:19;;;;;;;3.00;1.83;;;;;;;23.74;62.29;100175.31;5090988;28;20035;-74
2023/07/28 04:57:44;;;;;;;4.20;1.77;;;;;;;23.81;61.71;100154.59;5091113;28;20032;-74
2023/07/28 05:00:10;;;;;;;5.22;1.80;;;;;;;24.05;61.42;100170.06;5091414;28;20032;-74
2023/07/28 05:02:36;;;;;;;3.20;1.67;;;;;;;24.18;60.86;100174.75;5098242;28;20474;-74
2023/07/28 05:05:01;;;;;;;4.18;1.50;;;;;;;24.28;60.79;100162.75;5093348;28;20032;-73
2023/07/28 05:07:28;;;;;;;2.97;1.65;;;;;;;24.47;60.92;100173.63;5108657;28;20421;-74
2023/07/28 05:09:55;;;;;;;3.75;1.45;;;;;;;24.85;60.87;100163.19;5091518;28;20470;-74
2023/07/28 05:12:21;;;;;;;1.95;1.52;;;;;;;25.35;59.43;100170.56;5091410;28;20503;-74
2023/07/28 05:14:46;;;;;;;4.97;1.50;;;;;;;25.47;59.11;100176.31;5074380;28;20063;-75
2023/07/28 05:17:12;;;;;;;2.97;1.40;;;;;;;25.47;59.24;100163.34;5108582;28;20028;-74
2023/07/28 05:19:37;;;;;;;2.05;1.25;;;;;;;25.66;59.35;100160.41;5108619;28;20032;-74
2023/07/28 05:22:03;;;;;;;2.20;1.40;;;;;;;25.81;59.13;100163.91;5074064;28;20054;-74
2023/07/28 05:24:28;;;;;;;1.50;1.30;;;;;;;25.61;59.77;100165.22;5090651;28;20413;-74
2023/07/28 05:26:54;;;;;;;2.45;1.20;;;;;;;25.63;59.83;100157.44;5108109;28;20030;-74
2023/07/28 05:29:19;;;;;;;3.00;1.33;;;;;;;25.38;61.05;100153.41;5107960;28;20085;-74
2023/07/28 05:31:46;;;;;;;3.17;1.13;;;;;;;25.17;61.23;100153.94;5092332;28;20027;-74
2023/07/28 05:34:14;;;;;;;3.83;1.08;;;;;;;24.71;63.02;100151.41;5090953;28;20036;-74
2023/07/28 05:36:39;;;;;;;2.50;0.98;;;;;;;24.36;64.18;100154.56;5090750;28;20446;-74
2023/07/28 05:39:05;;;;;;;3.58;1.05;;;;;;;23.84;65.42;100170.47;5087404;28;20028;-74
2023/07/28 05:41:30;;;;;;;3.58;1.45;;;;;;;23.28;66.68;100162.31;5087343;28;20191;-75
2023/07/28 05:43:56;;;;;;;2.08;1.10;;;;;;;22.62;69.78;100161.38;5071522;28;20466;-74
2023/07/28 05:46:21;;;;;;;2.17;1.20;;;;;;;21.88;73.99;100153.44;5087358;28;20037;-73
2023/07/28 05:48:47;;;;;;;2.78;1.17;;;;;;;21.52;76.79;100164.78;5071940;28;20376;-73
2023/07/28 05:51:12;;;;;;;3.15;1.00;;;;;;;21.09;79.38;100164.56;5067490;28;20124;-73
2023/07/28 05:53:38;;;;;;;2.58;1.30;;;;;;;20.83;81.20;100165.81;5086985;28;20119;-74
2023/07/28 05:56:03;;;;;;;3.92;1.10;;;;;;;20.85;82.13;100163.59;5086345;28;20024;-73
2023/07/28 05:58:29;;;;;;;4.43;1.10;;;;;;;20.79;83.18;100171.00;5087662;28;20384;-72
2023/07/28 06:00:54;;;;;;;2.53;1.20;;;;;;;20.69;83.64;100165.59;5079032;28;20032;-73
2023/07/28 06:03:19;;;;;;;2.58;1.15;;;;;;;20.62;84.33;100174.13;5086793;28;20327;-74
2023/07/28 06:05:45;;;;;;;2.45;1.20;;;;;;;20.58;84.02;100170.31;5085930;28;20033;-74
2023/07/28 06:08:10;;;;;;;2.63;1.20;;;;;;;20.49;85.10;100182.91;5086823;28;20037;-74
2023/07/28 06:10:37;;;;;;;3.65;1.33;;;;;;;20.23;85.99;100178.63;5086175;28;20549;-73
2023/07/28 06:13:02;;;;;;;3.15;1.80;;;;;;;20.12;86.76;100162.28;5086183;28;20048;-74
2023/07/28 06:15:28;;;;;;;3.20;1.60;;;;;;;20.59;85.92;100176.59;5085747;28;20112;-74
2023/07/28 06:17:53;;;;;;;1.77;1.00;;;;;;;20.85;85.00;100190.94;5070756;28;20069;-74
2023/07/28 06:20:18;;;;;;;1.42;0.90;;;;;;;20.70;84.47;100185.59;5084448;28;20501;-74
2023/07/28 06:22:44;;;;;;;3.80;1.10;;;;;;;20.49;84.56;100171.16;5089937;28;20028;-74
2023/07/28 06:25:10;;;;;;;3.90;1.17;;;;;;;20.79;83.23;100186.59;5065025;28;20028;-73
2023/07/28 06:27:35;;;;;;;3.30;1.00;;;;;;;20.84;83.08;100184.66;5089727;28;20020;-74
2023/07/28 06:30:02;;;;;;;3.33;1.30;;;;;;;20.88;81.54;100180.25;5106773;28;20393;-74
2023/07/28 06:32:27;;;;;;;1.98;1.00;;;;;;;21.11;79.68;100178.75;5091532;28;20414;-75
2023/07/28 06:34:53;;;;;;;3.88;1.02;;;;;;;21.10;79.15;100182.59;5073396;28;20034;-75
2023/07/28 06:37:19;;;;;;;2.47;1.00;;;;;;;20.89;79.12;100189.28;5072969;28;20036;-74
2023/07/28 06:39:44;;;;;;;1.70;0.80;;;;;;;20.71;79.24;100190.75;5073590;28;20038;-74
2023/07/28 06:42:11;;;;;;;3.90;1.10;;;;;;;20.55;80.22;100195.47;5090120;28;20028;-74
2023/07/28 06:44:37;;;;;;;3.70;1.10;;;;;;;20.45;80.69;100190.03;5090427;28;20032;-74
2023/07/28 06:47:02;;;;;;;5.05;1.23;;;;;;;20.38;81.23;100192.25;5073264;28;20028;-74
2023/07/28 06:49:28;;;;;;;2.42;0.90;;;;;;;20.41;81.48;100203.44;5090188;28;20054;-73
2023/07/28 06:51:54;;;;;;;2.80;1.08;;;;;;;20.33;81.60;100197.72;5094083;28;20098;-73
2023/07/28 06:54:19;;;;;;;2.80;1.70;;;;;;;20.23;82.11;100192.28;5093926;28;20047;-73
2023/07/28 06:56:45;;;;;;;3.17;1.58;;;;;;;20.53;82.73;100205.88;5097014;28;20118;-73
2023/07/28 06:59:11;;;;;;;3.75;1.90;;;;;;;20.82;83.16;100203.25;5103774;28;20479;-74
2023/07/28 07:01:37;;;;;;;4.57;1.80;;;;;;;20.94;83.42;100197.47;5077422;28;20020;-74
2023/07/28 07:04:04;;;;;;;2.60;1.80;;;;;;;21.06;83.59;100214.34;5094993;28;20078;-74
2023/07/28 07:06:30;;;;;;;3.78;1.40;;;;;;;21.08;83.80;100209.41;5094033;28;20059;-74
2023/07/28 07:08:55;;;;;;;2.20;1.30;;;;;;;21.04;84.75;100207.53;5096200;28;20103;-74
2023/07/28 07:11:21;;;;;;;2.17;1.30;;;;;;;20.82;84.11;100196.97;5076916;28;20032;-74
2023/07/28 07:13:46;;;;;;;4.10;1.20;;;;;;;20.42;84.15;100206.97;5076953;28;20501;-74
2023/07/28 07:16:16;;;;;;;2.90;1.10;;;;;;;20.10;85.76;100212.84;5093378;28;20391;-74
2023/07/28 07:18:43;;;;;;;1.98;1.30;;;;;;;19.78;86.85;100213.97;5095089;28;20040;-74
2023/07/28 07:21:08;;;;;;;5.70;1.52;;;;;;;19.68;87.44;100205.78;5094776;28;20020;-73
2023/07/28 07:23:34;;;;;;;4.10;1.10;;;;;;;19.64;87.56;100216.44;5076988;28;20031;-74
2023/07/28 07:25:59;;;;;;;4.78;1.42;;;;;;;19.58;87.77;100219.41;5096567;28;20031;-74
2023/07/28 07:28:25;;;;;;;3.25;1.25;;;;;;;19.78;86.78;100224.06;5077076;28;20088;-74
2023/07/28 07:30:50;;;;;;;2.80;1.15;;;;;;;19.95;84.91;100210.94;5093427;28;20032;-74
2023/07/28 07:33:16;;;;;;;2.95;1.17;;;;;;;20.10;83.62;100218.28;5093331;28;20115;-74
2023/07/28 07:35:41;;;;;;;3.17;1.33;;;;;;;20.17;83.11;100214.16;5095130;28;20126;-74
2023/07/28 07:38:08;;;;;;;3.92;1.10;;;;;;;20.06;81.80;100206.25;5095055;28;20085;-73
2023/07/28 07:40:35;;;;;;;3.30;1.23;;;;;;;20.08;82.22;100215.81;5098699;28;20059;-73
2023/07/28 07:43:02;;;;;;;3.85;1.20;;;;;;;20.16;82.67;100223.47;5081023;28;20028;-73
2023/07/28 07:45:27;;;;;;;2.55;1.15;;;;;;;19.88;83.72;100222.13;5097450;28;20028;-74
2023/07/28 07:47:53;;;;;;;1.83;1.00;;;;;;;19.80;84.43;100208.22;5097245;28;20115;-73
2023/07/28 07:50:18;;;;;;;2.70;1.20;;;;;;;19.88;83.77;100222.13;5079371;28;20561;-74
2023/07/28 07:52:44;;;;;;;2.17;1.02;;;;;;;20.01;82.67;100237.16;5095756;28;20027;-74
2023/07/28 07:55:13;;;;;;;3.20;1.00;;;;;;;20.14;81.28;100233.84;5097619;28;20024;-73
2023/07/28 07:57:39;;;;;;;1.90;1.05;;;;;;;20.23;80.54;100216.88;5102981;28;20036;-74
2023/07/28 08:00:06;;;;;;;1.85;1.20;;;;;;;20.03;83.13;100242.31;5075779;28;20087;-74
2023/07/28 08:02:32;;;;;;;1.75;1.27;;;;;;;19.69;84.19;100243.72;5093684;28;20033;-74
2023/07/28 08:04:57;;;;;;;1.92;1.30;;;;;;;19.52;86.13;100240.41;5092611;28;20028;-74
2023/07/28 08:07:23;;;;;;;2.08;1.25;;;;;;;19.35;86.59;100240.69;5075527;28;20036;-73
2023/07/28 08:09:49;;;;;;;1.65;1.20;;;;;;;19.47;85.78;100251.34;5075432;28;20036;-74
2023/07/28 08:12:15;;;;;;;2.17;1.13;;;;;;;19.50;84.54;100250.78;5092312;28;20016;-74
2023/07/28 08:14:40;;;;;;;3.35;1.50;;;;;;;19.52;84.45;100248.59;5093552;28;20051;-74
2023/07/28 08:17:06;;;;;;;4.10;1.40;;;;;;;19.59;84.91;100246.41;5092325;28;20551;-74
2023/07/28 08:19:31;;;;;;;2.53;1.33;;;;;;;19.55;86.12;100258.97;5093773;28;20031;-74
2023/07/28 08:21:57;;;;;;;1.83;1.20;;;;;;;19.55;85.27;100256.25;5092314;28;20398;-74
2023/07/28 08:24:23;;;;;;;1.77;1.33;;;;;;;19.60;85.60;100261.72;5075390;28;20417;-73
2023/07/28 08:26:48;;;;;;;2.30;1.30;;;;;;;19.56;85.10;100263.34;5092455;28;20069;-74
2023/07/28 08:29:14;;;;;;;3.85;1.35;;;;;;;19.59;85.06;100257.34;5075507;28;20454;-74
2023/07/28 08:31:41;;;;;;;1.50;1.20;;;;;;;19.70;84.88;100266.38;5092050;28;20024;-74
2023/07/28 08:34:07;;;;;;;1.70;1.30;;;;;;;19.54;84.44;100230.06;5075551;28;20445;-74
2023/07/28 08:36:33;;;;;;;2.95;1.30;;;;;;;19.57;84.38;100261.41;5093369;28;20409;-74
2023/07/28 08:38:59;;;;;;;2.28;1.40;;;;;;;19.73;83.80;100262.28;5092692;28;20099;-74
2023/07/28 08:41:24;;;;;;;3.45;1.23;;;;;;;19.80;82.91;100265.56;5094721;28;20437;-74
2023/07/28 08:43:51;;;;;;;2.05;1.30;;;;;;;19.75;82.49;100263.66;5092145;28;20034;-74
2023/07/28 08:46:18;;;;;;;2.25;1.55;;;;;;;19.82;82.54;100260.66;5093233;28;20156;-74
2023/07/28 08:48:43;;;;;;;1.90;1.23;;;;;;;19.87;80.93;100247.00;5091821;28;20116;-74
2023/07/28 08:51:11;;;;;;;3.10;1.35;;;;;;;19.98;81.48;100265.00;5091743;28;20103;-74
2023/07/28 08:53:38;;;;;;;1.58;1.10;;;;;;;19.98;81.70;100262.28;5094866;28;20020;-74
2023/07/28 08:56:04;;;;;;;2.42;1.50;;;;;;;19.80;81.20;100240.97;5096303;28;20031;-74
2023/07/28 08:58:30;;;;;;;3.10;1.55;;;;;;;19.96;81.66;100261.72;5093343;28;20024;-73
2023/07/28 09:01:00;;;;;;;2.15;1.30;;;;;;;19.74;82.49;100253.03;5074834;28;20031;-74
2023/07/28 09:03:27;;;;;;;2.03;1.40;;;;;;;19.83;82.64;100265.00;5093131;28;20073;-73
2023/07/28 09:05:59;;;;;;;1.55;1.30;;;;;;;19.86;82.66;100243.44;5091581;28;20024;-73
2023/07/28 09:08:24;;;;;;;3.15;1.40;;;;;;;19.95;82.46;100266.38;5092761;28;20028;-74
2023/07/28 09:10:50;;;;;;;2.20;1.40;;;;;;;20.10;82.28;100254.63;5057781;28;20030;-74
2023/07/28 09:13:17;;;;;;;2.42;1.40;;;;;;;20.17;81.23;100262.53;5073689;28;20491;-73
2023/07/28 09:15:43;;;;;;;1.70;1.30;;;;;;;20.12;81.04;100249.69;5091386;28;20016;-74
2023/07/28 09:18:13;;;;;;;2.75;1.20;;;;;;;20.24;81.21;100248.59;5092406;28;20035;-74
2023/07/28 09:20:43;;;;;;;1.75;1.20;;;;;;;20.27;80.57;100267.97;5074701;28;20035;-74
2023/07/28 09:23:10;;;;;;;2.33;1.40;;;;;;;20.12;80.14;100266.06;5092485;28;20035;-74
2023/07/28 09:25:37;;;;;;;2.22;1.38;;;;;;;19.98;79.96;100275.13;5091007;28;20028;-74
2023/07/28 09:28:04;;;;;;;3.03;1.40;;;;;;;20.04;80.62;100274.84;5092433;28;20031;-74
2023/07/28 09:30:44;;;;;;;1.50;1.25;;;;;;;19.93;80.91;100256.81;5091161;28;20028;-74
2023/07/28 09:33:10;;;;;;;1.40;1.30;;;;;;;20.15;81.59;100272.91;5091322;28;20077;-74
2023/07/28 09:35:47;;;;;;;3.45;1.38;;;;;;;20.17;80.95;100257.06;5057225;28;20161;-74
2023/07/28 09:38:14;;;;;;;2.50;1.38;;;;;;;20.40;81.75;100280.25;5091001;28;20032;-74
2023/07/28 09:40:41;;;;;;;1.83;1.30;;;;;;;20.60;81.27;100280.19;5074083;28;20035;-74
2023/07/28 09:43:07;;;;;;;3.05;1.85;;;;;;;20.87;80.55;100277.09;5093595;28;20024;-74
2023/07/28 09:45:34;;;;;;;2.22;1.50;;;;;;;20.94;80.58;100281.44;5095492;28;20043;-74
2023/07/28 09:48:02;;;;;;;3.17;1.35;;;;;;;20.83;79.87;100273.28;5090512;28;20449;-74
2023/07/28 09:50:32;;;;;;;1.90;1.20;;;;;;;20.76;81.17;100275.50;5090513;28;20064;-74
2023/07/28 09:53:01;;;;;;;3.00;1.27;;;;;;;20.63;79.52;100270.63;5097551;28;20438;-74
2023/07/28 09:55:27;;;;;;;3.17;1.42;;;;;;;20.73;79.13;100288.88;5091134;28;20028;-74
2023/07/28 09:57:55;;;;;;;4.38;1.25;;;;;;;20.44;78.88;100281.31;5090789;28;20063;-74
2023/07/28 10:00:22;;;;;;;4.25;1.27;;;;;;;20.26;78.51;100277.25;5090968;28;20032;-74
2023/07/28 10:02:48;;;;;;;2.40;1.13;;;;;;;20.20;79.86;100294.75;5091897;28;20074;-74
2023/07/28 10:05:15;;;;;;;1.95;1.27;;;;;;;20.40;79.66;100296.63;5092374;28;20032;-74
2023/07/28 10:07:43;;;;;;;2.50;1.30;;;;;;;20.14;79.33;100282.19;5090475;28;20482;-74
2023/07/28 10:10:12;;;;;;;1.98;1.08;;;;;;;20.23;80.09;100302.41;5090853;28;20036;-74
2023/07/28 10:12:58;;;;;;;2.17;1.30;;;;;;;20.08;79.30;100286.03;5090423;28;20478;-74
2023/07/28 10:15:29;;;;;;;1.98;1.30;;;;;;;19.95;79.37;100285.47;5091805;28;20455;-74
2023/07/28 10:17:57;;;;;;;2.75;1.30;;;;;;;20.12;79.95;100301.56;5091550;28;20043;-74
2023/07/28 10:20:38;;;;;;;2.92;1.42;;;;;;;20.30;80.03;100300.19;5074595;28;20036;-74
2023/07/28 10:23:14;;;;;;;2.25;1.20;;;;;;;20.39;79.42;100297.72;5092029;28;20020;-74
2023/07/28 10:25:41;;;;;;;2.40;1.35;;;;;;;20.28;79.60;100294.19;5090529;28;20437;-74
2023/07/28 10:28:30;;;;;;;2.42;0.98;;;;;;;20.36;80.14;100295.53;5095722;28;20016;-73
2023/07/28 10:30:56;;;;;;;2.65;1.17;;;;;;;20.60;80.39;100296.59;5075241;28;20031;-74
2023/07/28 10:33:36;;;;;;;1.80;1.02;;;;;;;20.50;80.44;100299.34;5091581;28;20103;-74
2023/07/28 10:36:22;;;;;;;3.90;1.30;;;;;;;20.38;80.62;100304.28;5091671;28;20077;-74
2023/07/28 10:39:17;;;;;;;2.40;1.30;;;;;;;20.36;82.19;100314.66;5091672;28;20024;-74
2023/07/28 10:42:08;;;;;;;2.85;1.40;;;;;;;20.29;83.75;100314.13;5090058;28;20020;-74
2023/07/28 10:44:34;;;;;;;3.45;1.20;;;;;;;20.57;82.34;100305.34;5091416;28;20407;-74
2023/07/28 10:47:01;;;;;;;3.47;1.33;;;;;;;20.58;82.94;100315.19;5073114;28;20119;-74
2023/07/28 10:49:27;;;;;;;2.85;1.05;;;;;;;20.44;82.57;100313.28;5091456;28;20058;-74
2023/07/28 10:51:53;;;;;;;1.63;1.13;;;;;;;20.44;82.18;100294.97;5076866;28;20028;-74
2023/07/28 10:54:19;;;;;;;2.38;1.10;;;;;;;20.43;82.81;100296.09;5093407;28;20024;-74
2023/07/28 10:56:47;;;;;;;1.98;1.17;;;;;;;20.65;82.35;100307.50;5091987;28;20088;-73
2023/07/28 10:59:12;;;;;;;2.63;1.13;;;;;;;20.49;81.87;100294.94;5092627;28;20201;-74
2023/07/28 11:01:39;;;;;;;3.50;1.10;;;;;;;20.50;82.35;100304.81;5093658;28;20459;-74
2023/07/28 11:04:13;;;;;;;2.80;1.02;;;;;;;20.39;81.48;100293.06;5080218;28;20062;-73
2023/07/28 11:06:42;;;;;;;4.10;1.20;;;;;;;20.59;80.89;100302.34;5094852;28;20093;-74
2023/07/28 11:09:09;;;;;;;1.70;1.00;;;;;;;20.63;81.00;100309.72;5093634;28;20032;-73
2023/07/28 11:11:36;;;;;;;4.07;1.35;;;;;;;20.60;81.20;100309.47;5077663;28;20077;-73
2023/07/28 11:14:05;;;;;;;1.92;0.98;;;;;;;20.91;80.12;100314.81;5095312;28;20028;-74
2023/07/28 11:16:33;;;;;;;3.28;1.20;;;;;;;20.95;78.59;100304.94;5095449;28;20028;-74
2023/07/28 11:19:03;;;;;;;3.30;1.80;;;;;;;20.87;79.08;100312.63;5092568;28;20068;-74
2023/07/28 11:21:30;;;;;;;3.67;1.65;;;;;;;20.86;80.03;100311.00;5090718;28;20032;-74